createdAt,value
2018-03-01T00:00:08.333Z,9.00
2018-03-01T00:02:36.904Z,8.87
2018-03-01T00:05:04.403Z,8.80
2018-03-01T00:07:32.229Z,7.50
2018-03-01T00:10:00.211Z,8.20
2018-03-01T00:12:27.896Z,8.30
2018-03-01T00:14:55.459Z,7.83
2018-03-01T00:17:22.945Z,8.00
2018-03-01T00:19:50.649Z,8.77
2018-03-01T00:22:18.103Z,9.17
2018-03-01T00:24:45.810Z,7.90
2018-03-01T00:27:14.048Z,8.97
2018-03-01T00:29:41.654Z,7.30
2018-03-01T00:32:09.270Z,8.43
2018-03-01T00:34:36.936Z,7.73
2018-03-01T00:37:05.612Z,8.27
2018-03-01T00:39:33.304Z,6.90
2018-03-01T00:42:00.878Z,6.90
2018-03-01T00:44:29.495Z,7.53
2018-03-01T00:46:57.048Z,6.93
2018-03-01T00:49:24.637Z,7.33
2018-03-01T00:51:52.512Z,6.73
2018-03-01T00:54:21.182Z,5.70
2018-03-01T00:56:49.051Z,7.03
2018-03-01T00:59:16.720Z,7.80
2018-03-01T01:01:44.170Z,7.93
2018-03-01T01:04:11.627Z,7.37
2018-03-01T01:06:39.176Z,6.90
2018-03-01T01:09:07.274Z,7.03
2018-03-01T01:11:34.882Z,6.23
2018-03-01T01:14:03.306Z,6.90
2018-03-01T01:16:30.986Z,8.03
2018-03-01T01:18:59.000Z,7.30
2018-03-01T01:21:27.025Z,6.87
2018-03-01T01:23:55.322Z,10.00
2018-03-01T01:26:23.778Z,12.27
2018-03-01T01:28:51.752Z,10.93
2018-03-01T01:31:19.737Z,9.83
2018-03-01T01:33:47.693Z,10.80
2018-03-01T01:36:16.173Z,9.23
2018-03-01T01:38:43.956Z,8.63
2018-03-01T01:41:11.807Z,10.60
2018-03-01T01:43:39.782Z,8.43
2018-03-01T01:46:08.642Z,9.23
2018-03-01T01:48:37.141Z,10.50
2018-03-01T01:51:05.706Z,8.77
2018-03-01T01:53:33.574Z,9.13
2018-03-01T01:56:01.253Z,9.00
2018-03-01T01:58:28.871Z,10.60
2018-03-01T02:00:56.994Z,8.53
2018-03-01T02:03:24.533Z,8.80
2018-03-01T02:05:53.331Z,10.23
2018-03-01T02:08:21.232Z,10.57
2018-03-01T02:10:49.042Z,8.60
2018-03-01T02:13:16.773Z,8.57
2018-03-01T02:15:44.512Z,8.97
2018-03-01T02:18:12.192Z,9.33
2018-03-01T02:20:39.933Z,9.53
2018-03-01T02:23:07.724Z,8.30
2018-03-01T02:25:35.646Z,9.27
2018-03-01T02:28:04.266Z,9.83
2018-03-01T02:30:32.858Z,9.83
2018-03-01T02:33:01.039Z,9.20
2018-03-01T02:35:29.948Z,9.07
2018-03-01T02:37:58.379Z,8.93
2018-03-01T02:40:26.362Z,9.40
2018-03-01T02:42:54.470Z,8.53
2018-03-01T02:45:22.525Z,7.80
2018-03-01T02:47:51.117Z,8.73
2018-03-01T02:50:19.944Z,8.70
2018-03-01T02:52:47.889Z,9.97
2018-03-01T02:55:16.485Z,7.17
2018-03-01T02:57:44.124Z,8.20
2018-03-01T03:00:11.993Z,7.33
2018-03-01T03:02:39.963Z,8.37
2018-03-01T03:05:08.290Z,8.20
2018-03-01T03:07:37.009Z,7.70
2018-03-01T03:10:04.849Z,8.43
2018-03-01T03:12:32.595Z,7.50
2018-03-01T03:15:01.268Z,7.80
2018-03-01T03:17:29.577Z,7.53
2018-03-01T03:19:57.480Z,7.40
2018-03-01T03:22:25.868Z,8.50
2018-03-01T03:24:53.661Z,9.07
2018-03-01T03:27:21.710Z,7.03
2018-03-01T03:29:49.507Z,8.47
2018-03-01T03:32:17.566Z,7.60
2018-03-01T03:34:45.300Z,7.00
2018-03-01T03:37:12.975Z,7.20
2018-03-01T03:39:41.162Z,7.40
2018-03-01T03:42:09.655Z,8.50
2018-03-01T03:44:37.488Z,7.30
2018-03-01T03:47:05.152Z,7.47
2018-03-01T03:49:33.666Z,7.17
2018-03-01T03:52:02.312Z,7.77
2018-03-01T03:54:31.227Z,7.43
2018-03-01T03:56:59.289Z,7.53
2018-03-01T03:59:27.771Z,8.13
2018-03-01T04:01:55.579Z,7.77
2018-03-01T04:04:23.446Z,7.80
2018-03-01T04:06:52.247Z,8.13
2018-03-01T04:09:20.720Z,7.63
2018-03-01T04:11:48.986Z,8.00
2018-03-01T04:14:17.229Z,8.17
2018-03-01T04:16:44.876Z,7.40
2018-03-01T04:19:12.908Z,7.83
2018-03-01T04:21:41.797Z,8.60
2018-03-01T04:24:09.747Z,7.60
2018-03-01T04:26:39.984Z,8.47
2018-03-01T04:29:07.684Z,7.10
2018-03-01T04:31:36.136Z,8.00
2018-03-01T04:34:04.488Z,7.30
2018-03-01T04:36:33.581Z,7.40
2018-03-01T04:39:01.540Z,8.17
2018-03-01T04:41:29.206Z,7.63
2018-03-01T04:43:56.946Z,6.83
2018-03-01T04:46:25.496Z,7.67
2018-03-01T04:48:54.410Z,8.27
2018-03-01T04:51:22.064Z,8.37
2018-03-01T04:53:50.534Z,7.83
2018-03-01T04:56:19.080Z,7.77
2018-03-01T04:58:47.582Z,7.37
2018-03-01T05:01:16.469Z,7.37
2018-03-01T05:03:44.621Z,7.97
2018-03-01T05:06:12.499Z,7.90
2018-03-01T05:08:40.218Z,7.13
2018-03-01T05:11:07.997Z,7.30
2018-03-01T05:13:35.612Z,7.50
2018-03-01T05:16:03.279Z,8.87
2018-03-01T05:18:32.279Z,6.90
2018-03-01T05:21:01.258Z,7.30
2018-03-01T05:23:29.489Z,8.00
2018-03-01T05:25:57.674Z,7.80
2018-03-01T05:28:26.789Z,7.20
2018-03-01T05:30:54.686Z,8.10
2018-03-01T05:33:22.328Z,8.07
2018-03-01T05:35:51.208Z,7.60
2018-03-01T05:38:19.137Z,7.50
2018-03-01T05:40:47.512Z,7.00
2018-03-01T05:43:15.119Z,7.93
2018-03-01T05:45:43.065Z,7.10
2018-03-01T05:48:10.926Z,8.40
2018-03-01T05:50:39.269Z,8.27
2018-03-01T05:53:07.817Z,7.70
2018-03-01T05:55:35.562Z,7.47
2018-03-01T05:58:03.974Z,7.40
2018-03-01T06:00:32.207Z,7.10
2018-03-01T06:03:00.195Z,8.03
2018-03-01T06:05:27.909Z,8.43
2018-03-01T06:07:55.534Z,8.43
2018-03-01T06:10:23.265Z,7.63
2018-03-01T06:12:50.971Z,7.83
2018-03-01T06:15:19.539Z,7.50
2018-03-01T06:17:47.477Z,8.20
2018-03-01T06:20:15.145Z,6.43
2018-03-01T06:22:43.608Z,7.83
2018-03-01T06:25:11.399Z,7.13
2018-03-01T06:27:39.798Z,7.70
2018-03-01T06:30:07.725Z,7.47
2018-03-01T06:32:35.899Z,7.40
2018-03-01T06:35:04.070Z,7.27
2018-03-01T06:37:32.186Z,8.10
2018-03-01T06:39:59.935Z,7.27
2018-03-01T06:42:27.624Z,7.50
2018-03-01T06:44:56.337Z,7.13
2018-03-01T06:47:24.242Z,7.57
2018-03-01T06:49:51.993Z,7.90
2018-03-01T06:52:21.383Z,7.00
2018-03-01T06:54:49.273Z,7.20
2018-03-01T06:57:16.967Z,7.80
2018-03-01T06:59:45.386Z,7.70
2018-03-01T07:02:13.085Z,7.07
2018-03-01T07:04:41.649Z,8.43
2018-03-01T07:07:09.371Z,8.10
2018-03-01T07:09:37.729Z,8.20
2018-03-01T07:12:05.727Z,7.07
2018-03-01T07:14:34.781Z,7.80
2018-03-01T07:17:03.374Z,7.37
2018-03-01T07:19:31.333Z,8.43
2018-03-01T07:21:59.035Z,7.43
2018-03-01T07:24:26.643Z,7.20
2018-03-01T07:26:54.267Z,7.80
2018-03-01T07:29:22.085Z,7.40
2018-03-01T07:31:49.789Z,7.00
2018-03-01T07:34:17.433Z,7.30
2018-03-01T07:36:45.353Z,6.70
2018-03-01T07:39:13.358Z,6.53
2018-03-01T07:41:41.286Z,7.67
2018-03-01T07:44:09.030Z,8.57
2018-03-01T07:46:36.688Z,7.47
2018-03-01T07:49:04.435Z,7.87
2018-03-01T07:51:32.064Z,7.43
2018-03-01T07:53:59.780Z,6.77
2018-03-01T07:56:27.779Z,7.40
2018-03-01T07:58:56.235Z,7.40
2018-03-01T08:01:23.858Z,7.27
2018-03-01T08:03:51.988Z,6.90
2018-03-01T08:06:20.077Z,8.37
2018-03-01T08:08:47.837Z,7.60
2018-03-01T08:11:16.933Z,7.97
2018-03-01T08:13:44.894Z,7.57
2018-03-01T08:16:12.781Z,6.50
2018-03-01T08:18:40.836Z,7.17
2018-03-01T08:21:09.318Z,7.47
2018-03-01T08:23:37.627Z,7.50
2018-03-01T08:26:05.367Z,7.43
2018-03-01T08:28:34.037Z,7.77
2018-03-01T08:31:02.104Z,6.60
2018-03-01T08:33:29.984Z,7.37
2018-03-01T08:35:58.161Z,7.40
2018-03-01T08:38:25.925Z,6.90
2018-03-01T08:40:53.658Z,7.50
2018-03-01T08:43:21.359Z,6.10
2018-03-01T08:45:49.083Z,6.53
2018-03-01T08:48:16.644Z,6.93
2018-03-01T08:50:44.483Z,7.10
2018-03-01T08:53:12.519Z,6.90
2018-03-01T08:55:41.499Z,6.43
2018-03-01T08:58:09.121Z,6.50
2018-03-01T09:00:37.448Z,6.97
2018-03-01T09:03:05.611Z,7.33
2018-03-01T09:05:33.273Z,7.10
2018-03-01T09:08:01.327Z,6.80
2018-03-01T09:10:28.977Z,7.40
2018-03-01T09:12:56.703Z,6.73
2018-03-01T09:15:24.321Z,6.97
2018-03-01T09:17:52.436Z,7.20
2018-03-01T09:20:20.182Z,7.30
2018-03-01T09:22:47.907Z,7.37
2018-03-01T09:25:15.622Z,7.10
2018-03-01T09:27:43.780Z,7.27
2018-03-01T09:30:11.530Z,7.47
2018-03-01T09:32:39.158Z,6.97
2018-03-01T09:35:07.277Z,7.80
2018-03-01T09:37:35.736Z,8.80
2018-03-01T09:40:04.063Z,7.57
2018-03-01T09:42:31.937Z,7.73
2018-03-01T09:44:59.805Z,7.40
2018-03-01T09:47:27.734Z,13.53
2018-03-01T09:49:55.696Z,11.30
2018-03-01T09:52:23.618Z,11.37
2018-03-01T09:54:51.397Z,10.07
2018-03-01T09:57:19.756Z,12.10
2018-03-01T09:59:48.189Z,10.80
2018-03-01T10:02:16.267Z,12.00
2018-03-01T10:04:44.610Z,10.87
2018-03-01T10:07:13.040Z,10.33
2018-03-01T10:09:41.061Z,11.17
2018-03-01T10:12:09.047Z,10.07
2018-03-01T10:14:37.864Z,10.17
2018-03-01T10:17:05.604Z,10.20
2018-03-01T10:19:33.206Z,10.83
2018-03-01T10:22:02.082Z,11.20
2018-03-01T10:24:30.130Z,9.20
2018-03-01T10:26:57.897Z,8.20
2018-03-01T10:29:25.528Z,8.33
2018-03-01T10:31:53.101Z,8.27
2018-03-01T10:34:21.819Z,7.93
2018-03-01T10:36:49.397Z,8.77
2018-03-01T10:39:17.080Z,9.60
2018-03-01T10:41:44.935Z,8.97
2018-03-01T10:44:12.601Z,8.47
2018-03-01T10:46:40.931Z,7.70
2018-03-01T10:49:08.485Z,8.53
2018-03-01T10:51:36.216Z,7.93
2018-03-01T10:54:03.886Z,7.87
2018-03-01T10:56:31.667Z,8.10
2018-03-01T10:59:00.055Z,6.70
2018-03-01T11:01:28.021Z,7.70
2018-03-01T11:03:55.957Z,7.63
2018-03-01T11:06:23.759Z,7.30
2018-03-01T11:08:52.221Z,8.57
2018-03-01T11:11:19.895Z,7.30
2018-03-01T11:13:47.581Z,7.30
2018-03-01T11:16:16.212Z,6.93
2018-03-01T11:18:43.844Z,7.30
2018-03-01T11:21:11.933Z,7.00
2018-03-01T11:23:39.695Z,7.23
2018-03-01T11:26:07.298Z,8.00
2018-03-01T11:28:35.075Z,6.60
2018-03-01T11:31:03.422Z,7.50
2018-03-01T11:33:31.119Z,7.57
2018-03-01T11:35:58.697Z,7.17
2018-03-01T11:38:26.483Z,7.60
2018-03-01T11:40:55.919Z,6.70
2018-03-01T11:43:24.367Z,6.97
2018-03-01T11:45:51.971Z,8.60
2018-03-01T11:48:19.810Z,9.30
2018-03-01T11:50:47.424Z,10.47
2018-03-01T11:53:15.137Z,11.77
2018-03-01T11:55:43.085Z,8.97
2018-03-01T11:58:10.832Z,4.90
2018-03-01T12:00:38.530Z,6.20
2018-03-01T12:03:06.790Z,5.57
2018-03-01T12:05:34.183Z,6.30
2018-03-01T12:08:01.668Z,5.60
2018-03-01T12:10:29.164Z,6.30
2018-03-01T12:12:57.076Z,5.47
2018-03-01T12:15:24.686Z,5.80
2018-03-01T12:17:52.958Z,5.47
2018-03-01T12:20:21.267Z,5.03
2018-03-01T12:22:48.762Z,5.80
2018-03-01T12:25:16.295Z,5.43
2018-03-01T12:27:43.788Z,5.80
2018-03-01T12:30:11.449Z,5.90
2018-03-01T12:32:39.153Z,6.77
2018-03-01T12:35:07.339Z,6.67
2018-03-01T12:37:35.958Z,7.00
2018-03-01T12:40:03.821Z,7.00
2018-03-01T12:42:31.344Z,6.80
2018-03-01T12:44:59.539Z,6.60
2018-03-01T12:47:27.002Z,6.87
2018-03-01T12:49:54.881Z,6.70
2018-03-01T12:52:22.436Z,6.50
2018-03-01T12:54:49.854Z,6.50
2018-03-01T12:57:18.081Z,6.83
2018-03-01T12:59:45.584Z,6.80
2018-03-01T13:02:15.306Z,6.23
2018-03-01T13:04:42.832Z,6.50
2018-03-01T13:07:10.326Z,7.10
2018-03-01T13:09:37.886Z,5.90
2018-03-01T13:12:05.568Z,7.47
2018-03-01T13:14:33.236Z,7.40
2018-03-01T13:17:00.843Z,6.63
2018-03-01T13:19:29.092Z,6.70
2018-03-01T13:21:56.624Z,6.67
2018-03-01T13:24:24.230Z,6.40
2018-03-01T13:26:52.468Z,6.17
2018-03-01T13:29:19.997Z,6.67
2018-03-01T13:31:47.522Z,6.87
2018-03-01T13:34:15.454Z,7.20
2018-03-01T13:36:43.036Z,6.13
2018-03-01T13:39:10.523Z,6.67
2018-03-01T13:41:39.540Z,6.37
2018-03-01T13:44:07.113Z,6.87
2018-03-01T13:46:35.803Z,6.00
2018-03-01T13:49:04.097Z,7.80
2018-03-01T13:51:31.946Z,6.37
2018-03-01T13:53:59.454Z,6.43
2018-03-01T13:56:26.878Z,7.07
2018-03-01T13:58:54.346Z,7.23
2018-03-01T14:01:22.097Z,7.03
2018-03-01T14:03:49.576Z,7.90
2018-03-01T14:06:17.099Z,6.90
2018-03-01T14:08:44.500Z,5.77
2018-03-01T14:11:12.335Z,6.80
2018-03-01T14:13:39.944Z,6.03
2018-03-01T14:16:08.227Z,6.17
2018-03-01T14:18:35.725Z,7.33
2018-03-01T14:21:03.384Z,6.83
2018-03-01T14:23:30.999Z,7.97
2018-03-01T14:25:58.478Z,7.03
2018-03-01T14:28:26.401Z,7.33
2018-03-01T14:30:55.055Z,6.43
2018-03-01T14:33:22.646Z,6.13
2018-03-01T14:35:50.099Z,6.67
2018-03-01T14:38:17.946Z,7.57
2018-03-01T14:40:45.526Z,7.03
2018-03-01T14:43:13.041Z,7.40
2018-03-01T14:45:40.723Z,6.60
2018-03-01T14:48:08.496Z,6.77
2018-03-01T14:50:36.147Z,6.33
2018-03-01T14:53:03.703Z,8.00
2018-03-01T14:55:31.123Z,6.33
2018-03-01T14:57:59.356Z,6.90
2018-03-01T15:00:26.892Z,7.80
2018-03-01T15:02:54.360Z,7.80
2018-03-01T15:05:21.843Z,7.43
2018-03-01T15:07:49.274Z,6.90
2018-03-01T15:10:16.855Z,6.80
2018-03-01T15:12:44.592Z,7.43
2018-03-01T15:15:12.121Z,7.03
2018-03-01T15:17:40.278Z,6.83
2018-03-01T15:20:08.510Z,7.40
2018-03-01T15:22:36.354Z,7.90
2018-03-01T15:25:03.980Z,7.00
2018-03-01T15:27:32.175Z,6.90
2018-03-01T15:29:59.617Z,6.50
2018-03-01T15:32:27.859Z,7.77
2018-03-01T15:34:55.354Z,6.47
2018-03-01T15:37:23.262Z,7.70
2018-03-01T15:39:50.864Z,7.50
2018-03-01T15:42:18.403Z,6.70
2018-03-01T15:44:46.352Z,8.13
2018-03-01T15:47:13.884Z,7.40
2018-03-01T15:49:42.492Z,7.33
2018-03-01T15:52:10.769Z,7.73
2018-03-01T15:54:38.251Z,8.10
2018-03-01T15:57:05.765Z,7.37
2018-03-01T15:59:33.195Z,8.70
2018-03-01T16:02:00.700Z,8.07
2018-03-01T16:04:28.221Z,7.27
2018-03-01T16:06:55.996Z,9.07
2018-03-01T16:09:23.687Z,8.70
2018-03-01T16:11:51.518Z,7.50
2018-03-01T16:14:20.279Z,7.70
2018-03-01T16:16:48.212Z,7.97
2018-03-01T16:19:15.708Z,8.00
2018-03-01T16:21:43.606Z,7.87
2018-03-01T16:24:11.057Z,7.00
2018-03-01T16:26:39.301Z,7.90
2018-03-01T16:29:06.778Z,8.53
2018-03-01T16:31:34.384Z,8.20
2018-03-01T16:34:02.549Z,7.37
2018-03-01T16:36:31.039Z,8.67
2018-03-01T16:38:58.544Z,9.40
2018-03-01T16:41:26.796Z,8.57
2018-03-01T16:43:54.308Z,8.97
2018-03-01T16:46:22.009Z,8.40
2018-03-01T16:48:49.748Z,8.90
2018-03-01T16:51:17.521Z,6.90
2018-03-01T16:53:45.105Z,8.07
2018-03-01T16:56:12.540Z,9.70
2018-03-01T16:58:40.360Z,9.50
2018-03-01T17:01:07.766Z,9.10
2018-03-01T17:03:37.061Z,9.20
2018-03-01T17:06:04.576Z,10.90
2018-03-01T17:08:32.187Z,10.40
2018-03-01T17:10:59.945Z,10.47
2018-03-01T17:13:28.028Z,11.30
2018-03-01T17:15:55.590Z,11.10
2018-03-01T17:18:23.419Z,10.50
2018-03-01T17:20:50.910Z,10.43
2018-03-01T17:23:18.383Z,12.40
2018-03-01T17:25:45.830Z,12.00
2018-03-01T17:28:13.462Z,11.13
2018-03-01T17:30:41.013Z,11.13
2018-03-01T17:33:08.521Z,10.53
2018-03-01T17:35:36.099Z,11.13
2018-03-01T17:38:04.424Z,10.23
2018-03-01T17:40:32.001Z,12.17
2018-03-01T17:42:59.861Z,11.37
2018-03-01T17:45:27.379Z,12.17
2018-03-01T17:47:54.959Z,11.00
2018-03-01T17:50:22.555Z,11.43
2018-03-01T17:52:50.057Z,10.77
2018-03-01T17:55:17.880Z,11.60
2018-03-01T17:57:45.453Z,11.07
2018-03-01T18:00:12.891Z,11.90
2018-03-01T18:02:41.935Z,11.30
2018-03-01T18:05:10.160Z,11.60
2018-03-01T18:07:38.448Z,11.00
2018-03-01T18:10:06.102Z,9.97
2018-03-01T18:12:33.632Z,9.97
2018-03-01T18:15:01.204Z,10.70
2018-03-01T18:17:28.736Z,11.50
2018-03-01T18:19:56.304Z,9.40
2018-03-01T18:22:24.296Z,10.50
2018-03-01T18:24:52.973Z,9.50
2018-03-01T18:27:21.672Z,10.20
2018-03-01T18:29:49.294Z,9.67
2018-03-01T18:32:16.853Z,9.50
2018-03-01T18:34:44.488Z,9.90
2018-03-01T18:37:12.762Z,10.00
2018-03-01T18:39:40.241Z,9.67
2018-03-01T18:42:07.672Z,9.70
2018-03-01T18:44:35.131Z,8.97
2018-03-01T18:47:02.565Z,9.30
2018-03-01T18:49:30.076Z,9.30
2018-03-01T18:51:57.982Z,9.60
2018-03-01T18:54:25.544Z,8.77
2018-03-01T18:56:53.158Z,10.10
2018-03-01T18:59:22.042Z,8.20
2018-03-01T19:01:52.216Z,8.10
2018-03-01T19:04:20.301Z,8.60
2018-03-01T19:06:48.187Z,7.60
2018-03-01T19:09:15.664Z,8.30
2018-03-01T19:11:43.090Z,8.43
2018-03-01T19:14:10.899Z,8.73
2018-03-01T19:16:39.623Z,8.73
2018-03-01T19:19:07.115Z,8.70
2018-03-01T19:21:34.614Z,8.33
2018-03-01T19:24:02.616Z,8.27
2018-03-01T19:26:30.142Z,7.93
2018-03-01T19:28:57.715Z,7.73
2018-03-01T19:31:25.317Z,8.00
2018-03-01T19:33:53.158Z,7.60
2018-03-01T19:36:20.668Z,7.07
2018-03-01T19:38:49.300Z,7.90
2018-03-01T19:41:16.968Z,7.47
2018-03-01T19:43:44.838Z,7.00
2018-03-01T19:46:12.602Z,6.63
2018-03-01T19:48:41.141Z,6.87
2018-03-01T19:51:09.381Z,6.63
2018-03-01T19:53:36.867Z,6.83
2018-03-01T19:56:04.362Z,7.17
2018-03-01T19:58:31.829Z,6.60
2018-03-01T20:00:59.296Z,7.20
2018-03-01T20:03:26.840Z,6.10
2018-03-01T20:05:55.938Z,6.97
2018-03-01T20:08:24.832Z,6.50
2018-03-01T20:10:52.795Z,6.67
2018-03-01T20:13:20.659Z,5.73
2018-03-01T20:15:48.406Z,6.60
2018-03-01T20:18:16.305Z,6.47
2018-03-01T20:20:44.184Z,6.00
2018-03-01T20:23:11.829Z,5.83
2018-03-01T20:25:39.337Z,6.20
2018-03-01T20:28:06.903Z,6.03
2018-03-01T20:30:34.440Z,6.30
2018-03-01T20:33:01.919Z,6.47
2018-03-01T20:35:29.604Z,5.97
2018-03-01T20:37:57.860Z,6.53
2018-03-01T20:40:25.842Z,5.13
2018-03-01T20:42:53.357Z,5.97
2018-03-01T20:45:21.647Z,5.67
2018-03-01T20:47:49.831Z,6.40
2018-03-01T20:50:18.370Z,5.87
2018-03-01T20:52:46.197Z,4.93
2018-03-01T20:55:13.799Z,5.63
2018-03-01T20:57:41.548Z,5.80
2018-03-01T21:00:10.352Z,5.30
2018-03-01T21:02:38.402Z,5.77
2018-03-01T21:05:06.014Z,5.97
2018-03-01T21:07:33.941Z,5.43
2018-03-01T21:10:01.667Z,5.10
2018-03-01T21:12:29.897Z,5.40
2018-03-01T21:14:57.340Z,5.00
2018-03-01T21:17:24.769Z,4.53
2018-03-01T21:19:52.265Z,4.60
2018-03-01T21:22:20.219Z,4.57
2018-03-01T21:24:48.653Z,4.67
2018-03-01T21:27:16.864Z,5.30
2018-03-01T21:29:44.346Z,4.80
2018-03-01T21:32:11.848Z,4.40
2018-03-01T21:34:39.549Z,4.33
2018-03-01T21:37:08.434Z,4.33
2018-03-01T21:39:37.038Z,4.47
2018-03-01T21:42:04.958Z,4.87
2018-03-01T21:44:32.826Z,4.23
2018-03-01T21:47:00.447Z,4.27
2018-03-01T21:49:28.056Z,4.27
2018-03-01T21:51:55.750Z,4.97
2018-03-01T21:54:23.208Z,4.43
2018-03-01T21:56:50.731Z,4.13
2018-03-01T21:59:18.829Z,4.63
2018-03-01T22:01:46.683Z,3.97
2018-03-01T22:04:14.234Z,3.90
2018-03-01T22:06:41.667Z,3.90
2018-03-01T22:09:09.982Z,4.20
2018-03-01T22:11:37.873Z,4.17
2018-03-01T22:14:05.504Z,4.20
2018-03-01T22:16:33.397Z,3.90
2018-03-01T22:19:01.123Z,4.50
2018-03-01T22:21:28.756Z,3.63
2018-03-01T22:23:56.679Z,3.60
2018-03-01T22:26:24.359Z,4.03
2018-03-01T22:28:51.826Z,4.57
2018-03-01T22:31:19.667Z,4.20
2018-03-01T22:33:47.308Z,4.40
2018-03-01T22:36:14.818Z,4.50
2018-03-01T22:38:42.312Z,4.03
2018-03-01T22:41:10.816Z,4.70
2018-03-01T22:43:38.385Z,4.50
2018-03-01T22:46:06.462Z,4.30
2018-03-01T22:48:34.068Z,4.40
2018-03-01T22:51:02.300Z,4.60
2018-03-01T22:53:29.745Z,4.60
2018-03-01T22:55:57.519Z,4.50
2018-03-01T22:58:25.176Z,4.00
2018-03-01T23:00:52.713Z,5.50
2018-03-01T23:03:20.407Z,4.60
2018-03-01T23:05:48.836Z,3.90
2018-03-01T23:08:16.341Z,4.77
2018-03-01T23:10:43.803Z,4.00
2018-03-01T23:13:11.388Z,4.87
2018-03-01T23:15:39.135Z,4.20
2018-03-01T23:18:07.868Z,3.30
2018-03-01T23:20:35.872Z,4.10
2018-03-01T23:23:03.742Z,4.53
2018-03-01T23:25:31.690Z,4.60
2018-03-01T23:27:59.198Z,4.70
2018-03-01T23:30:27.639Z,4.90
2018-03-01T23:32:55.350Z,5.27
2018-03-01T23:35:22.949Z,5.83
2018-03-01T23:37:52.403Z,5.57
2018-03-01T23:40:20.966Z,6.80
2018-03-01T23:42:48.552Z,6.17
2018-03-01T23:45:17.122Z,6.37
2018-03-01T23:47:44.887Z,6.57
2018-03-01T23:50:12.870Z,6.30
2018-03-01T23:52:40.821Z,5.80
2018-03-01T23:55:08.776Z,6.53
2018-03-01T23:57:36.401Z,6.43
